Time;durP1;ratioP1;P1;durP2;ratioP2;P2;SDS_P1;SDS_P2;PMS_P1;PMS_P2;Temp;Humidity;BMP_temperature;BMP_pressure;BME280_temperature;BME280_humidity;BME280_pressure;Samples;Min_cycle;Max_cycle;Signal;HPM_P1;HPM_P2
2021/06/30 00:01:56;;;;;;;2.58;1.58;;;18.00;99.90;;;;;;3570843;40;20449;-79
2021/06/30 00:04:22;;;;;;;2.28;1.55;;;18.00;99.90;;;;;;3570040;40;20405;-74
2021/06/30 00:06:48;;;;;;;1.95;1.77;;;18.00;99.90;;;;;;3560321;40;20759;-74
2021/06/30 00:09:15;;;;;;;4.50;1.65;;;18.00;99.90;;;;;;3560225;40;20387;-74
2021/06/30 00:11:43;;;;;;;3.38;1.95;;;18.00;99.90;;;;;;3560031;40;20384;-74
2021/06/30 00:14:09;;;;;;;5.40;1.77;;;18.00;99.90;;;;;;3561250;40;20498;-74
2021/06/30 00:16:36;;;;;;;3.88;1.60;;;18.00;99.90;;;;;;3559979;40;20403;-78
2021/06/30 00:19:03;;;;;;;3.75;2.20;;;18.00;99.90;;;;;;3560313;40;20711;-74
2021/06/30 00:21:29;;;;;;;2.90;1.92;;;17.80;99.90;;;;;;3559582;40;20771;-74
2021/06/30 00:23:55;;;;;;;2.95;1.60;;;17.60;99.90;;;;;;3559857;40;20391;-74
2021/06/30 00:26:21;;;;;;;4.25;2.05;;;;;;;;;;3560387;40;20864;-73
2021/06/30 00:28:48;;;;;;;3.08;1.77;;;;;;;;;;3560185;40;20644;-74
2021/06/30 00:31:16;;;;;;;3.40;1.80;;;;;;;;;;3559924;40;20384;-74
2021/06/30 00:33:42;;;;;;;1.77;1.63;;;17.20;99.90;;;;;;3559910;40;20768;-74
2021/06/30 00:36:08;;;;;;;4.35;1.92;;;17.20;99.90;;;;;;3559888;40;20757;-74
2021/06/30 00:38:34;;;;;;;4.50;1.95;;;17.20;99.90;;;;;;3559882;40;20395;-74
2021/06/30 00:41:00;;;;;;;4.00;1.87;;;;;;;;;;3559419;40;20447;-74
2021/06/30 00:43:26;;;;;;;1.77;1.67;;;;;;;;;;3559719;40;20495;-73
2021/06/30 00:45:54;;;;;;;3.78;2.20;;;;;;;;;;3561962;40;20447;-74
2021/06/30 00:48:20;;;;;;;3.13;2.20;;;;;;;;;;3560420;40;20757;-74
2021/06/30 00:50:46;;;;;;;3.55;2.10;;;;;;;;;;3558754;40;20407;-74
2021/06/30 00:53:13;;;;;;;3.35;2.30;;;;;;;;;;3559801;40;20434;-74
2021/06/30 00:55:39;;;;;;;6.80;2.50;;;;;;;;;;3560300;40;20366;-73
2021/06/30 00:58:05;;;;;;;1.95;1.60;;;;;;;;;;3559854;40;20410;-74
2021/06/30 01:00:31;;;;;;;2.33;2.05;;;;;;;;;;3560531;40;20784;-75
2021/06/30 01:02:59;;;;;;;2.97;2.50;;;;;;;;;;3591352;23;20482;-66
2021/06/30 01:05:25;;;;;;;2.15;1.95;;;;;;;;;;3566971;40;20389;-67
2021/06/30 01:07:52;;;;;;;4.43;2.25;;;;;;;;;;3566734;40;20375;-66
2021/06/30 01:10:18;;;;;;;2.65;2.20;;;;;;;;;;3567110;40;20374;-66
2021/06/30 01:12:44;;;;;;;3.78;2.08;;;;;;;;;;3567131;40;20363;-67
2021/06/30 01:15:11;;;;;;;2.78;2.58;;;;;;;;;;3566416;40;20384;-68
2021/06/30 01:17:38;;;;;;;3.22;2.25;;;;;;;;;;3566700;40;20374;-66
2021/06/30 01:20:06;;;;;;;3.08;2.10;;;;;;;;;;3566764;40;20405;-66
2021/06/30 01:22:33;;;;;;;5.40;2.35;;;;;;;;;;3566720;40;20377;-66
2021/06/30 01:25:00;;;;;;;4.05;2.00;;;;;;;;;;3566823;40;20378;-67
2021/06/30 01:27:30;;;;;;;5.15;2.20;;;;;;;;;;3566884;40;20381;-66
2021/06/30 01:29:56;;;;;;;3.45;2.03;;;;;;;;;;3566969;40;20638;-67
2021/06/30 01:32:24;;;;;;;5.82;2.42;;;;;;;;;;3567051;40;20759;-67
2021/06/30 01:34:49;;;;;;;3.53;2.70;;;16.80;99.90;;;;;;3567115;40;20816;-66
2021/06/30 01:37:15;;;;;;;4.43;2.57;;;16.20;99.90;;;;;;3566744;40;20452;-66
2021/06/30 01:39:41;;;;;;;4.93;2.80;;;16.10;99.90;;;;;;3561366;40;20702;-66
2021/06/30 01:42:09;;;;;;;4.80;3.20;;;16.00;99.90;;;;;;3567206;40;20492;-67
2021/06/30 01:44:35;;;;;;;5.25;3.13;;;15.90;99.90;;;;;;3566145;40;20444;-67
2021/06/30 01:47:01;;;;;;;3.35;2.63;;;16.00;99.90;;;;;;3566216;40;20406;-67
2021/06/30 01:49:27;;;;;;;4.75;2.30;;;16.00;99.90;;;;;;3565924;40;20401;-67
2021/06/30 01:51:53;;;;;;;3.50;2.08;;;16.00;99.90;;;;;;3566368;40;20628;-67
2021/06/30 01:54:19;;;;;;;3.08;1.95;;;16.10;99.90;;;;;;3559519;40;20401;-67
2021/06/30 01:56:48;;;;;;;2.22;1.90;;;16.20;99.90;;;;;;3566731;40;20453;-67
2021/06/30 01:59:15;;;;;;;3.45;1.40;;;16.20;99.90;;;;;;3566097;40;20386;-67
2021/06/30 02:01:42;;;;;;;3.78;1.88;;;16.30;99.90;;;;;;3560748;40;20406;-66
2021/06/30 02:04:09;;;;;;;5.32;2.08;;;16.30;99.90;;;;;;3561311;40;20438;-66
2021/06/30 02:06:37;;;;;;;3.85;1.75;;;16.30;99.90;;;;;;3550426;40;20728;-66
2021/06/30 02:09:04;;;;;;;2.97;1.40;;;16.30;99.90;;;;;;3562970;40;20374;-67
2021/06/30 02:11:30;;;;;;;3.30;1.58;;;16.20;99.90;;;;;;3558131;40;20393;-68
2021/06/30 02:13:56;;;;;;;3.70;1.50;;;16.10;99.90;;;;;;3547269;40;20450;-66
2021/06/30 02:16:23;;;;;;;5.50;1.77;;;16.10;99.90;;;;;;3556479;40;20379;-67
2021/06/30 02:18:49;;;;;;;5.35;1.67;;;16.00;99.90;;;;;;3557076;40;20465;-67
2021/06/30 02:21:15;;;;;;;5.05;1.58;;;16.00;99.90;;;;;;3552282;40;20668;-67
2021/06/30 02:23:41;;;;;;;2.80;1.10;;;16.10;99.90;;;;;;3557747;40;20454;-67
2021/06/30 02:26:07;;;;;;;4.50;1.35;;;16.10;99.90;;;;;;3559730;40;20475;-67
2021/06/30 02:28:33;;;;;;;4.38;1.45;;;16.20;99.90;;;;;;3556342;40;20362;-67
2021/06/30 02:31:00;;;;;;;4.20;1.40;;;16.00;99.90;;;;;;3562079;40;20469;-67
2021/06/30 02:33:27;;;;;;;3.35;1.42;;;16.00;99.90;;;;;;3550472;40;20749;-67
2021/06/30 02:35:53;;;;;;;2.78;1.30;;;16.00;99.90;;;;;;3556468;40;20406;-67
2021/06/30 02:38:19;;;;;;;3.47;1.30;;;15.90;99.90;;;;;;3560631;40;20387;-67
2021/06/30 02:40:45;;;;;;;5.85;1.30;;;16.00;99.90;;;;;;3555815;40;20388;-67
2021/06/30 02:43:11;;;;;;;4.35;1.70;;;16.00;99.90;;;;;;3551892;40;20639;-67
2021/06/30 02:45:37;;;;;;;2.03;1.42;;;16.10;99.90;;;;;;3548174;40;20493;-67
2021/06/30 02:48:03;;;;;;;2.30;1.58;;;16.10;99.90;;;;;;3551058;40;20726;-73
2021/06/30 02:50:31;;;;;;;3.70;1.40;;;16.10;99.90;;;;;;3557972;40;20388;-72
2021/06/30 02:52:56;;;;;;;1.67;1.25;;;16.10;99.90;;;;;;3555850;40;20398;-77
2021/06/30 02:55:23;;;;;;;3.50;1.20;;;16.10;99.90;;;;;;3556500;40;20706;-73
2021/06/30 02:57:50;;;;;;;1.77;1.25;;;16.00;99.90;;;;;;3556535;40;20395;-73
2021/06/30 03:00:19;;;;;;;2.45;1.58;;;16.00;99.90;;;;;;3556827;40;20390;-73
2021/06/30 03:02:45;;;;;;;2.70;1.60;;;16.00;99.90;;;;;;3510447;40;1854916;-73
2021/06/30 03:05:12;;;;;;;2.28;1.92;;;;;;;;;;3565596;40;20413;-73
2021/06/30 03:07:40;;;;;;;2.33;1.90;;;;;;;;;;3566485;40;20378;-73
2021/06/30 03:10:08;;;;;;;3.15;1.70;;;15.80;99.90;;;;;;3566416;40;20401;-73
2021/06/30 03:12:34;;;;;;;3.35;1.70;;;15.60;99.90;;;;;;3560910;40;20487;-73
2021/06/30 03:15:00;;;;;;;2.72;1.80;;;15.50;99.90;;;;;;3566548;40;20415;-73
2021/06/30 03:17:26;;;;;;;3.50;1.55;;;15.50;99.90;;;;;;3566682;40;20386;-74
2021/06/30 03:19:52;;;;;;;4.93;2.17;;;15.50;99.90;;;;;;3562038;40;20397;-74
2021/06/30 03:22:19;;;;;;;4.32;1.50;;;15.40;99.90;;;;;;3564877;40;20641;-73
2021/06/30 03:24:47;;;;;;;3.40;1.60;;;15.40;99.90;;;;;;3566875;40;20498;-74
2021/06/30 03:27:13;;;;;;;5.97;1.90;;;15.40;99.90;;;;;;3559257;40;20444;-76
2021/06/30 03:29:39;;;;;;;2.75;1.60;;;15.30;99.90;;;;;;3562578;40;20408;-74
2021/06/30 03:32:05;;;;;;;4.78;1.90;;;15.40;99.90;;;;;;3568021;40;20393;-73
2021/06/30 03:34:31;;;;;;;3.35;1.60;;;;;;;;;;3560761;40;20395;-75
2021/06/30 03:36:58;;;;;;;3.80;1.80;;;;;;;;;;3568273;40;20400;-75
2021/06/30 03:39:24;;;;;;;3.70;1.37;;;;;;;;;;3567777;40;20380;-74
2021/06/30 03:41:51;;;;;;;2.80;1.05;;;;;;;;;;3567980;40;20806;-75
2021/06/30 03:44:17;;;;;;;1.95;0.60;;;;;;;;;;3568053;40;20391;-73
2021/06/30 03:46:44;;;;;;;0.45;0.20;;;;;;;;;;3564950;40;20379;-72
2021/06/30 03:49:10;;;;;;;0.20;0.10;;;;;;;;;;3570793;40;20374;-73
2021/06/30 03:51:36;;;;;;;0.08;0.00;;;;;;;;;;3571739;40;20401;-73
2021/06/30 03:54:03;;;;;;;0.60;0.00;;;;;;;;;;3568039;40;20487;-74
2021/06/30 03:56:30;;;;;;;0.85;0.05;;;;;;;;;;3567833;40;20778;-72
2021/06/30 03:58:58;;;;;;;1.03;0.00;;;16.10;99.90;;;;;;3567680;40;20398;-79
2021/06/30 04:01:24;;;;;;;0.50;0.00;;;;;;;;;;3568130;40;20396;-75
2021/06/30 04:03:55;;;;;;;0.22;0.00;;;;;;;;;;3568838;40;20420;-70
2021/06/30 04:06:21;;;;;;;0.00;0.00;;;;;;;;;;3571228;40;20394;-73
2021/06/30 04:08:48;;;;;;;0.70;0.00;;;;;;;;;;3571153;40;20389;-74
2021/06/30 04:11:14;;;;;;;1.30;0.20;;;16.40;99.90;;;;;;3559348;40;20428;-73
2021/06/30 04:13:40;;;;;;;0.40;0.00;;;17.20;95.10;;;;;;3568772;40;20481;-72
2021/06/30 04:16:07;;;;;;;0.20;0.00;;;17.50;93.80;;;;;;3561012;40;20445;-72
2021/06/30 04:18:33;;;;;;;2.20;0.20;;;17.70;93.90;;;;;;3565298;40;20481;-72
2021/06/30 04:20:59;;;;;;;0.68;0.03;;;;;;;;;;3575598;40;20735;-72
2021/06/30 04:23:26;;;;;;;0.25;0.08;;;;;;;;;;3577173;40;20368;-72
2021/06/30 04:25:52;;;;;;;0.45;0.10;;;17.80;94.10;;;;;;3559145;40;20809;-74
2021/06/30 04:28:18;;;;;;;0.30;0.00;;;;;;;;;;3567983;40;20383;-74
2021/06/30 04:30:44;;;;;;;0.10;0.00;;;;;;;;;;3574108;40;20390;-71
2021/06/30 04:33:12;;;;;;;0.98;0.00;;;;;;;;;;3568207;40;20388;-72
2021/06/30 04:35:38;;;;;;;0.17;0.10;;;;;;;;;;3561543;40;20750;-73
2021/06/30 04:38:04;;;;;;;0.33;0.00;;;;;;;;;;3567908;40;20375;-72
2021/06/30 04:40:31;;;;;;;0.00;0.00;;;;;;;;;;3572525;40;20384;-72
2021/06/30 04:42:57;;;;;;;2.20;0.00;;;18.30;91.80;;;;;;3568047;40;20381;-72
2021/06/30 04:45:23;;;;;;;0.30;0.00;;;18.90;89.20;;;;;;3571765;40;20433;-73
2021/06/30 04:47:49;;;;;;;0.10;0.00;;;19.00;88.40;;;;;;3571967;40;20390;-72
2021/06/30 04:50:17;;;;;;;0.40;0.00;;;19.00;86.80;;;;;;3572340;40;20382;-72
2021/06/30 04:52:43;;;;;;;0.57;0.00;;;19.10;87.20;;;;;;3570258;40;20405;-74
2021/06/30 04:55:10;;;;;;;0.10;0.00;;;;;;;;;;3569949;40;20386;-72
2021/06/30 04:57:36;;;;;;;0.30;0.00;;;19.20;84.70;;;;;;3564058;40;20389;-73
2021/06/30 05:00:04;;;;;;;0.30;0.00;;;19.40;84.80;;;;;;3567722;40;20399;-72
2021/06/30 05:02:30;;;;;;;0.10;0.00;;;;;;;;;;3564936;40;20420;-72
2021/06/30 05:04:56;;;;;;;0.17;0.10;;;;;;;;;;3568020;40;20487;-73
2021/06/30 05:07:24;;;;;;;0.00;0.00;;;;;;;;;;3558299;40;20409;-77
2021/06/30 05:09:50;;;;;;;0.20;0.00;;;;;;;;;;3559060;40;20417;-71
2021/06/30 05:12:17;;;;;;;0.60;0.00;;;;;;;;;;3558041;40;20867;-75
2021/06/30 05:14:43;;;;;;;0.10;0.00;;;;;;;;;;3566771;40;20389;-72
2021/06/30 05:17:09;;;;;;;0.20;0.00;;;;;;;;;;3566922;40;20646;-77
2021/06/30 05:19:35;;;;;;;0.05;0.00;;;;;;;;;;3559923;40;20414;-72
2021/06/30 05:22:02;;;;;;;0.90;0.00;;;;;;;;;;3566963;40;20484;-73
2021/06/30 05:24:30;;;;;;;0.93;0.00;;;;;;;;;;3562272;40;20785;-71
2021/06/30 05:26:56;;;;;;;1.45;0.10;;;;;;;;;;3567076;40;20667;-74
2021/06/30 05:29:22;;;;;;;0.77;0.03;;;;;;;;;;3567637;40;20370;-72
2021/06/30 05:31:48;;;;;;;0.90;0.00;;;;;;;;;;3566746;40;20686;-72
2021/06/30 05:34:14;;;;;;;0.35;0.10;;;;;;;;;;3565507;40;20393;-73
2021/06/30 05:36:47;;;;;;;0.20;0.10;;;;;;;;;;3566854;40;20393;-70
2021/06/30 05:39:14;;;;;;;1.30;0.00;;;;;;;;;;3567203;40;20370;-75
2021/06/30 05:41:41;;;;;;;1.30;0.00;;;;;;;;;;3557435;40;20401;-72
2021/06/30 05:44:09;;;;;;;0.10;0.00;;;;;;;;;;3557760;40;20491;-73
2021/06/30 05:46:35;;;;;;;0.10;0.10;;;;;;;;;;3565919;40;20483;-74
2021/06/30 05:49:01;;;;;;;0.70;0.15;;;;;;;;;;3565813;40;20363;-72
2021/06/30 05:51:27;;;;;;;0.10;0.00;;;;;;;;;;3567365;40;20398;-73
2021/06/30 05:53:53;;;;;;;0.10;0.10;;;;;;;;;;3567129;40;20459;-73
2021/06/30 05:56:19;;;;;;;0.60;0.10;;;;;;;;;;3567084;40;20380;-77
2021/06/30 05:58:47;;;;;;;0.00;0.00;;;;;;;;;;3566967;40;20456;-72
2021/06/30 06:01:13;;;;;;;0.05;0.00;;;;;;;;;;3566522;40;20386;-73
2021/06/30 06:03:39;;;;;;;0.40;0.00;;;;;;;;;;3566947;40;20807;-73
2021/06/30 06:06:06;;;;;;;0.80;0.00;;;;;;;;;;3566992;40;20659;-72
2021/06/30 06:08:32;;;;;;;0.60;0.00;;;;;;;;;;3566904;40;20378;-72
2021/06/30 06:10:58;;;;;;;0.93;0.10;;;;;;;;;;3566967;40;20385;-72
2021/06/30 06:13:24;;;;;;;0.20;0.00;;;;;;;;;;3567340;40;20389;-74
2021/06/30 06:15:51;;;;;;;1.25;0.08;;;;;;;;;;3573784;40;20415;-72
2021/06/30 06:18:18;;;;;;;0.70;0.00;;;;;;;;;;3568786;40;20377;-72
2021/06/30 06:20:44;;;;;;;0.10;0.00;;;;;;;;;;3565972;40;20385;-72
2021/06/30 06:23:10;;;;;;;0.10;0.00;;;;;;;;;;3567529;40;20373;-75
2021/06/30 06:25:36;;;;;;;0.80;0.00;;;;;;;;;;3567852;40;20392;-72
2021/06/30 06:28:04;;;;;;;0.10;0.00;;;;;;;;;;3567152;40;20789;-72
2021/06/30 06:30:31;;;;;;;0.90;0.10;;;;;;;;;;3567178;40;20380;-73
2021/06/30 06:32:58;;;;;;;0.40;0.00;;;;;;;;;;3559913;40;20395;-72
2021/06/30 06:35:25;;;;;;;0.73;0.00;;;;;;;;;;3566874;40;20393;-78
2021/06/30 06:37:51;;;;;;;0.50;0.00;;;;;;;;;;3556171;40;20834;-72
2021/06/30 06:40:17;;;;;;;0.80;0.00;;;;;;;;;;3570617;40;20753;-71
2021/06/30 06:42:43;;;;;;;0.60;0.00;;;;;;;;;;3567236;40;20378;-72
2021/06/30 06:45:10;;;;;;;1.23;0.00;;;;;;;;;;3569580;40;20396;-72
2021/06/30 06:47:37;;;;;;;0.30;0.00;;;;;;;;;;3566778;40;20389;-73
2021/06/30 06:50:05;;;;;;;0.13;0.00;;;;;;;;;;3570452;40;20387;-73
2021/06/30 06:52:31;;;;;;;0.20;0.00;;;;;;;;;;3574099;40;20437;-72
2021/06/30 06:54:57;;;;;;;0.10;0.00;;;;;;;;;;3568681;40;20382;-74
2021/06/30 06:57:24;;;;;;;0.60;0.00;;;;;;;;;;3566654;40;20385;-72
2021/06/30 06:59:50;;;;;;;3.30;0.10;;;;;;;;;;3566391;40;20382;-73
2021/06/30 07:02:16;;;;;;;0.10;0.00;;;;;;;;;;3558673;40;20445;-72
2021/06/30 07:04:42;;;;;;;0.98;0.00;;;;;;;;;;3566962;40;20539;-73
2021/06/30 07:07:13;;;;;;;0.05;0.00;;;;;;;;;;3562600;40;20747;-73
2021/06/30 07:09:39;;;;;;;0.15;0.00;;;;;;;;;;3564389;40;20465;-72
2021/06/30 07:12:06;;;;;;;0.30;0.00;;;;;;;;;;3559002;40;20793;-73
2021/06/30 07:14:32;;;;;;;0.10;0.00;;;;;;;;;;3566689;40;20445;-72
2021/06/30 07:16:58;;;;;;;0.50;0.00;;;;;;;;;;3566580;40;20385;-72
2021/06/30 07:19:24;;;;;;;0.30;0.20;;;;;;;;;;3566618;40;20389;-76
2021/06/30 07:21:50;;;;;;;0.38;0.00;;;;;;;;;;3566517;40;20519;-73
2021/06/30 07:24:18;;;;;;;0.60;0.00;;;;;;;;;;3566692;40;20382;-72
2021/06/30 07:26:44;;;;;;;0.73;0.00;;;;;;;;;;3566571;40;20400;-72
2021/06/30 07:29:10;;;;;;;0.40;0.10;;;;;;;;;;3566317;40;20388;-72
2021/06/30 07:31:36;;;;;;;0.20;0.00;;;;;;;;;;3566642;40;20374;-73
2021/06/30 07:34:03;;;;;;;1.50;0.10;;;;;;;;;;3566249;40;20382;-73
2021/06/30 07:36:29;;;;;;;0.20;0.10;;;;;;;;;;3566450;40;20430;-72
2021/06/30 07:38:55;;;;;;;2.20;0.07;;;;;;;;;;3566262;40;20643;-73
2021/06/30 07:41:22;;;;;;;0.43;0.10;;;;;;;;;;3566544;40;20643;-73
2021/06/30 07:43:49;;;;;;;0.50;0.00;;;;;;;;;;3566353;40;20384;-70
2021/06/30 07:46:15;;;;;;;0.88;0.00;;;;;;;;;;3565781;40;20456;-73
2021/06/30 07:48:41;;;;;;;0.20;0.00;;;;;;;;;;3566298;40;20810;-77
2021/06/30 07:51:08;;;;;;;0.53;0.00;;;;;;;;;;3566564;40;20753;-72
2021/06/30 07:53:34;;;;;;;1.15;0.10;;;;;;;;;;3559675;40;20430;-75
2021/06/30 07:56:00;;;;;;;0.40;0.00;;;;;;;;;;3568244;40;20394;-72
2021/06/30 07:58:28;;;;;;;0.20;0.00;;;;;;;;;;3566031;40;20401;-73
2021/06/30 08:00:54;;;;;;;0.98;0.00;;;;;;;;;;3566496;40;20503;-71
2021/06/30 08:03:20;;;;;;;1.20;0.00;;;;;;;;;;3566380;40;20429;-72
2021/06/30 08:05:46;;;;;;;0.80;0.00;;;;;;;;;;3566302;40;20437;-72
2021/06/30 08:08:13;;;;;;;0.60;0.15;;;;;;;;;;3566116;40;20377;-72
2021/06/30 08:10:39;;;;;;;0.20;0.00;;;;;;;;;;3566454;40;20415;-72
2021/06/30 08:13:05;;;;;;;1.20;0.20;;;;;;;;;;3563302;40;20390;-72
2021/06/30 08:15:32;;;;;;;0.10;0.00;;;;;;;;;;3568102;40;20381;-73
2021/06/30 08:17:59;;;;;;;0.20;0.00;;;;;;;;;;3567801;40;20398;-72
2021/06/30 08:20:25;;;;;;;0.05;0.00;;;;;;;;;;3549490;40;20414;-72
2021/06/30 08:22:51;;;;;;;1.10;0.00;;;;;;;;;;3566898;40;20427;-72
2021/06/30 08:25:17;;;;;;;1.10;0.10;;;;;;;;;;3557395;40;20441;-72
2021/06/30 08:27:44;;;;;;;0.65;0.00;;;;;;;;;;3560767;40;20424;-73
2021/06/30 08:30:12;;;;;;;0.00;0.00;;;;;;;;;;3568972;40;20386;-72
2021/06/30 08:32:41;;;;;;;0.90;0.20;;;;;;;;;;3568036;40;20404;-72
2021/06/30 08:35:07;;;;;;;0.15;0.00;;;;;;;;;;3569567;40;20846;-73
2021/06/30 08:37:39;;;;;;;1.77;0.20;;;;;;;;;;3570109;40;20482;-73
2021/06/30 08:40:06;;;;;;;1.42;0.10;;;;;;;;;;3575288;40;20420;-72
2021/06/30 08:42:32;;;;;;;1.15;0.00;;;;;;;;;;3567669;40;20381;-72
2021/06/30 08:44:58;;;;;;;1.23;0.00;;;25.20;61.80;;;;;;3570550;40;20390;-72
2021/06/30 08:47:31;;;;;;;0.00;0.00;;;25.00;62.80;;;;;;3562969;40;20731;-72
2021/06/30 08:49:59;;;;;;;0.30;0.00;;;25.00;63.00;;;;;;3570080;40;20366;-75
2021/06/30 08:52:26;;;;;;;0.20;0.00;;;25.10;62.40;;;;;;3568000;40;20381;-73
2021/06/30 08:54:52;;;;;;;1.45;0.13;;;25.00;62.80;;;;;;3567412;40;20625;-72
2021/06/30 08:57:19;;;;;;;0.50;0.10;;;25.00;65.40;;;;;;3567983;40;20381;-73
2021/06/30 08:59:47;;;;;;;1.48;0.10;;;25.00;63.30;;;;;;3566920;40;20413;-73
2021/06/30 09:02:14;;;;;;;0.50;0.00;;;25.10;65.10;;;;;;3567108;40;20394;-72
2021/06/30 09:04:42;;;;;;;0.50;0.00;;;;;;;;;;3567993;40;20560;-71
2021/06/30 09:07:10;;;;;;;0.28;0.00;;;;;;;;;;3564898;40;20389;-72
2021/06/30 09:09:40;;;;;;;0.57;0.00;;;;;;;;;;3567487;40;20401;-73
2021/06/30 09:12:07;;;;;;;0.40;0.00;;;;;;;;;;3563112;40;20521;-76
2021/06/30 09:14:36;;;;;;;0.70;0.00;;;;;;;;;;3567589;40;20479;-72
2021/06/30 09:17:16;;;;;;;0.70;0.00;;;;;;;;;;3567389;40;20709;-73
2021/06/30 09:19:46;;;;;;;0.20;0.00;;;;;;;;;;3567345;40;20370;-72
2021/06/30 09:22:14;;;;;;;0.30;0.00;;;;;;;;;;3566483;40;20481;-73
2021/06/30 09:24:40;;;;;;;0.30;0.00;;;;;;;;;;3567432;40;20472;-72
2021/06/30 09:27:06;;;;;;;0.40;0.00;;;;;;;;;;3567437;40;20365;-72
2021/06/30 09:29:33;;;;;;;0.00;0.00;;;;;;;;;;3567662;40;20373;-72
2021/06/30 09:31:59;;;;;;;0.10;0.00;;;;;;;;;;3565086;40;20382;-72
2021/06/30 09:34:26;;;;;;;0.47;0.00;;;;;;;;;;3565608;40;20722;-70
2021/06/30 09:37:05;;;;;;;0.10;0.00;;;;;;;;;;3567451;40;20377;-70
2021/06/30 09:39:37;;;;;;;0.00;0.00;;;;;;;;;;3561859;40;20366;-71
2021/06/30 09:42:03;;;;;;;0.10;0.00;;;;;;;;;;3567310;40;20483;-70
2021/06/30 09:44:31;;;;;;;0.20;0.00;;;;;;;;;;3567263;40;20395;-70
2021/06/30 09:46:57;;;;;;;0.50;0.00;;;;;;;;;;3567364;40;20483;-70
2021/06/30 09:49:26;;;;;;;0.32;0.13;;;;;;;;;;3564122;40;20377;-71
2021/06/30 09:52:03;;;;;;;3.73;0.67;;;;;;;;;;3560138;40;20406;-72
2021/06/30 09:54:30;;;;;;;0.45;0.30;;;;;;;;;;3567229;40;20739;-69
2021/06/30 09:57:00;;;;;;;3.22;0.40;;;;;;;;;;3566807;40;20374;-72
2021/06/30 09:59:27;;;;;;;0.80;0.30;;;;;;;;;;3556844;40;20403;-71
2021/06/30 10:01:57;;;;;;;0.28;0.20;;;;;;;;;;3568483;40;20408;-71
2021/06/30 10:04:25;;;;;;;1.20;0.20;;;;;;;;;;3566808;40;20405;-71
2021/06/30 10:06:55;;;;;;;2.33;0.20;;;;;;;;;;3561701;40;20413;-70
2021/06/30 10:09:21;;;;;;;0.30;0.17;;;;;;;;;;3565914;40;20373;-70
2021/06/30 10:11:55;;;;;;;1.20;0.20;;;;;;;;;;3567361;40;20377;-71
2021/06/30 10:14:22;;;;;;;1.00;0.30;;;;;;;;;;3564285;40;20396;-69
2021/06/30 10:16:49;;;;;;;0.50;0.13;;;;;;;;;;3567297;40;20656;-70
2021/06/30 10:19:15;;;;;;;0.68;0.32;;;;;;;;;;3567116;40;20386;-71
2021/06/30 10:21:41;;;;;;;0.80;0.35;;;;;;;;;;3567706;40;20738;-71
2021/06/30 10:24:08;;;;;;;0.68;0.30;;;;;;;;;;3567218;40;20385;-70
2021/06/30 10:26:34;;;;;;;0.88;0.38;;;;;;;;;;3567302;40;20754;-70
2021/06/30 10:29:01;;;;;;;0.55;0.40;;;;;;;;;;3566926;40;20385;-70
2021/06/30 10:31:31;;;;;;;0.60;0.30;;;;;;;;;;3567240;40;20408;-70
2021/06/30 10:33:59;;;;;;;0.80;0.50;;;;;;;;;;3566526;40;20452;-71
2021/06/30 10:36:43;;;;;;;0.93;0.40;;;;;;;;;;3565453;40;20376;-70
2021/06/30 10:39:09;;;;;;;0.80;0.40;;;;;;;;;;3562017;40;20394;-72
2021/06/30 10:41:36;;;;;;;0.70;0.30;;;;;;;;;;3569373;40;20384;-71
2021/06/30 10:44:10;;;;;;;1.05;0.38;;;;;;;;;;3566252;40;20803;-70
2021/06/30 10:46:37;;;;;;;0.85;0.30;;;;;;;;;;3567954;40;20671;-71
2021/06/30 10:49:22;;;;;;;0.80;0.20;;;;;;;;;;3566714;40;20397;-71
2021/06/30 10:51:49;;;;;;;0.52;0.20;;;;;;;;;;3567034;40;20366;-71
2021/06/30 10:54:34;;;;;;;0.57;0.30;;;;;;;;;;3557136;40;20402;-76
2021/06/30 10:57:21;;;;;;;1.50;0.30;;;;;;;;;;3565587;40;20357;-72
2021/06/30 11:00:03;;;;;;;1.95;0.30;;;;;;;;;;3554527;40;20386;-71
2021/06/30 11:02:33;;;;;;;0.90;0.60;;;;;;;;;;3537448;40;20452;-71
2021/06/30 11:05:14;;;;;;;1.20;0.50;;;;;;;;;;3556190;40;20482;-71
2021/06/30 11:07:41;;;;;;;0.98;0.63;;;25.30;60.60;;;;;;3557842;40;20399;-71
2021/06/30 11:10:45;;;;;;;0.75;0.50;;;29.00;71.60;;;;;;3557331;40;20395;-69
2021/06/30 11:13:11;;;;;;;2.13;0.60;;;29.00;72.90;;;;;;3520667;40;20795;-72
2021/06/30 11:15:40;;;;;;;1.13;0.63;;;29.20;71.10;;;;;;3560309;40;20382;-71
2021/06/30 11:18:41;;;;;;;1.13;0.70;;;29.20;70.20;;;;;;3556184;40;20430;-70
2021/06/30 11:21:08;;;;;;;2.20;0.60;;;;;;;;;;3557848;40;20372;-71
2021/06/30 11:23:39;;;;;;;1.55;0.40;;;;;;;;;;3558936;40;20502;-70
2021/06/30 11:26:20;;;;;;;1.23;0.50;;;;;;;;;;3558591;40;20381;-70
2021/06/30 11:28:46;;;;;;;2.00;0.70;;;;;;;;;;3553822;40;20388;-70
2021/06/30 11:31:27;;;;;;;1.45;0.60;;;;;;;;;;3559882;40;20382;-70
2021/06/30 11:34:08;;;;;;;2.30;0.60;;;;;;;;;;3559502;40;20679;-71
2021/06/30 11:36:36;;;;;;;1.02;0.50;;;;;;;;;;3558050;40;20661;-70
2021/06/30 11:39:06;;;;;;;1.45;0.70;;;;;;;;;;3555871;40;20375;-70
2021/06/30 11:41:41;;;;;;;1.08;0.57;;;;;;;;;;3553370;40;20401;-70
2021/06/30 11:44:10;;;;;;;1.27;0.55;;;;;;;;;;3554803;40;20368;-71
2021/06/30 11:46:36;;;;;;;1.00;0.50;;;;;;;;;;3557696;40;20399;-71
2021/06/30 11:49:03;;;;;;;1.10;0.40;;;;;;;;;;3548929;40;20399;-71
2021/06/30 11:51:30;;;;;;;1.60;0.50;;;;;;;;;;3558292;40;20439;-70
2021/06/30 11:53:56;;;;;;;1.10;0.60;;;;;;;;;;3553742;40;20403;-71
2021/06/30 11:56:36;;;;;;;1.02;0.35;;;;;;;;;;3557986;40;20410;-71
2021/06/30 11:59:04;;;;;;;0.60;0.40;;;;;;;;;;3556005;40;20372;-70
2021/06/30 12:01:31;;;;;;;1.70;0.50;;;;;;;;;;3559818;40;20393;-72
2021/06/30 12:04:15;;;;;;;1.10;0.30;;;;;;;;;;3563800;40;20408;-70
2021/06/30 12:06:45;;;;;;;1.30;0.43;;;;;;;;;;3568186;40;20419;-70
2021/06/30 12:09:14;;;;;;;1.75;0.40;;;;;;;;;;3566972;40;20385;-71
2021/06/30 12:11:42;;;;;;;1.20;0.40;;;;;;;;;;3571184;40;20646;-71
2021/06/30 12:14:09;;;;;;;2.10;0.60;;;;;;;;;;3559620;40;20763;-71
2021/06/30 12:16:42;;;;;;;0.98;0.40;;;;;;;;;;3567200;40;20383;-71
2021/06/30 12:19:09;;;;;;;0.95;0.30;;;;;;;;;;3567065;40;20743;-70
2021/06/30 12:21:35;;;;;;;0.90;0.30;;;;;;;;;;3567487;40;20370;-70
2021/06/30 12:24:03;;;;;;;1.90;0.30;;;;;;;;;;3567132;40;20456;-71
2021/06/30 12:26:29;;;;;;;0.85;0.20;;;;;;;;;;3568072;40;20855;-70
2021/06/30 12:28:55;;;;;;;1.60;0.40;;;;;;;;;;3567342;40;20638;-70
2021/06/30 12:31:21;;;;;;;1.33;0.30;;;;;;;;;;3567634;40;20706;-69
2021/06/30 12:33:48;;;;;;;0.85;0.30;;;;;;;;;;3558768;40;20412;-70
2021/06/30 12:36:16;;;;;;;1.10;0.20;;;;;;;;;;3567521;40;20433;-70
2021/06/30 12:38:42;;;;;;;1.38;0.30;;;29.20;71.10;;;;;;3567814;40;20370;-71
2021/06/30 12:41:10;;;;;;;0.80;0.20;;;31.20;59.00;;;;;;3568005;40;20402;-70
2021/06/30 12:43:36;;;;;;;0.90;0.28;;;31.10;57.50;;;;;;3567790;40;20397;-70
2021/06/30 12:46:02;;;;;;;0.20;0.20;;;;;;;;;;3569264;40;20405;-70
2021/06/30 12:48:30;;;;;;;1.60;0.30;;;;;;;;;;3566215;40;20372;-70
2021/06/30 12:51:07;;;;;;;0.93;0.20;;;31.20;59.10;;;;;;3568027;40;20671;-70
2021/06/30 12:53:39;;;;;;;0.50;0.20;;;31.60;56.20;;;;;;3571323;40;20376;-70
2021/06/30 12:56:06;;;;;;;1.13;0.20;;;31.50;55.00;;;;;;3568334;40;20374;-70
2021/06/30 12:58:42;;;;;;;0.45;0.15;;;31.50;55.70;;;;;;3558788;40;20652;-69
2021/06/30 13:01:09;;;;;;;0.30;0.20;;;;;;;;;;3559040;40;20449;-70
2021/06/30 13:03:45;;;;;;;1.30;0.30;;;;;;;;;;3568706;40;20413;-70
2021/06/30 13:06:13;;;;;;;0.75;0.20;;;31.70;56.40;;;;;;3567651;40;20413;-70
2021/06/30 13:08:40;;;;;;;1.05;0.20;;;31.30;55.70;;;;;;3568453;40;20388;-70
2021/06/30 13:11:16;;;;;;;1.00;0.20;;;31.30;57.20;;;;;;3571971;40;20384;-70
2021/06/30 13:14:03;;;;;;;0.90;0.10;;;31.50;54.50;;;;;;3570631;40;20747;-69
2021/06/30 13:16:31;;;;;;;0.50;0.30;;;31.80;55.80;;;;;;3565198;40;20400;-70
2021/06/30 13:18:59;;;;;;;0.28;0.20;;;31.90;56.20;;;;;;3567503;40;20435;-70
2021/06/30 13:21:27;;;;;;;2.15;0.30;;;31.80;56.90;;;;;;3573472;40;20406;-70
2021/06/30 13:24:05;;;;;;;0.37;0.20;;;31.90;58.00;;;;;;3568759;40;20650;-70
2021/06/30 13:34:37;;;;;;;0.40;0.20;;;32.20;57.30;;;;;;3569802;40;20777;-70
2021/06/30 13:37:05;;;;;;;1.25;0.43;;;32.20;55.40;;;;;;3575631;40;20380;-69
2021/06/30 13:39:32;;;;;;;0.65;0.20;;;32.00;56.70;;;;;;3558653;40;20381;-70
2021/06/30 13:41:58;;;;;;;1.50;0.20;;;32.10;56.10;;;;;;3570753;40;20455;-70
2021/06/30 13:44:26;;;;;;;1.30;0.20;;;32.40;56.00;;;;;;3574054;40;20386;-70
2021/06/30 13:46:52;;;;;;;0.20;0.20;;;32.50;55.60;;;;;;3561917;40;20406;-70
2021/06/30 13:49:18;;;;;;;0.43;0.20;;;32.60;53.20;;;;;;3571209;40;20467;-70
2021/06/30 13:51:44;;;;;;;1.58;0.20;;;32.80;53.60;;;;;;3562692;40;20380;-76
2021/06/30 13:54:10;;;;;;;0.40;0.30;;;32.80;53.50;;;;;;3565969;40;20454;-70
2021/06/30 13:56:37;;;;;;;0.45;0.20;;;32.50;54.80;;;;;;3564734;40;20389;-70
2021/06/30 13:59:03;;;;;;;0.50;0.30;;;32.50;57.10;;;;;;3559271;40;20880;-70
2021/06/30 14:01:31;;;;;;;1.00;0.20;;;32.70;56.60;;;;;;3564120;40;20471;-70
2021/06/30 14:04:03;;;;;;;1.20;0.20;;;32.90;57.10;;;;;;3567449;40;20443;-70
2021/06/30 14:06:30;;;;;;;0.30;0.20;;;33.00;55.70;;;;;;3567145;40;20389;-70
2021/06/30 14:08:57;;;;;;;0.80;0.20;;;32.90;56.60;;;;;;3567218;40;20382;-70
2021/06/30 14:11:25;;;;;;;0.90;0.28;;;32.90;57.50;;;;;;3565287;40;20401;-70